Terminal Aerodrome Forecast
Issued by NWS

Home | Current Version | Previous Version | Graphics & Text | Print | Product List | Glossary On
Versions: 1 2 3 4 5 6 7 8 9 10 11 12 13 14 15 16 17 18 19 20 21 22
000
FTUS43 KIWX 191500 AAA
TAFSBN
TAF AMD
KSBN 191529Z 1915/2012 21012G18KT P6SM SCT020 BKN040
      TEMPO 1915/1916 BKN020
     FM191600 22012G18KT P6SM BKN040
      TEMPO 1919/1921 29020G40KT 3SM +TSRA BKN050CB
     FM200000 22005KT P6SM SCT060=

USA.gov is the U.S. government's official web portal to all federal, state and local government web resources and services.